Time;durP1;ratioP1;P1;durP2;ratioP2;P2;SDS_P1;SDS_P2;PMS_P1;PMS_P2;Temp;Humidity;BMP_temperature;BMP_pressure;BME280_temperature;BME280_humidity;BME280_pressure;Samples;Min_cycle;Max_cycle;Signal;HPM_P1;HPM_P2
2024/01/22 00:00:56;;;;;;;4.47;4.00;;;;;;;6.25;100.00;101010.38;6141906;28;20250;-71
2024/01/22 00:04:16;;;;;;;7.80;4.80;;;;;;;6.24;100.00;101003.28;6158979;28;20691;-70
2024/01/22 00:07:38;;;;;;;5.67;4.13;;;;;;;6.11;100.00;100960.44;6141925;28;20231;-70
2024/01/22 00:10:59;;;;;;;9.70;5.83;;;;;;;5.98;100.00;100913.25;6138927;28;20230;-70
2024/01/22 00:14:20;;;;;;;11.77;5.20;;;;;;;5.84;100.00;100855.34;6150484;28;20231;-71
2024/01/22 00:17:42;;;;;;;5.47;4.97;;;;;;;5.82;100.00;100867.09;6139563;28;20620;-70
2024/01/22 00:21:03;;;;;;;8.40;4.83;;;;;;;5.88;100.00;100883.63;6145171;28;20238;-69
2024/01/22 00:24:24;;;;;;;5.93;5.10;;;;;;;5.77;100.00;100832.66;6158197;28;20245;-71
2024/01/22 00:27:45;;;;;;;9.10;6.13;;;;;;;5.73;100.00;100822.25;6146263;28;20226;-71
2024/01/22 00:31:06;;;;;;;8.23;6.17;;;;;;;5.72;100.00;100793.78;6151582;28;20587;-70
2024/01/22 00:34:28;;;;;;;6.90;5.63;;;;;;;5.67;100.00;100762.88;6156967;28;20683;-71
2024/01/22 00:37:49;;;;;;;10.07;5.43;;;;;;;5.64;100.00;100760.44;6147251;28;20320;-71
2024/01/22 00:41:10;;;;;;;9.00;5.97;;;;;;;5.63;100.00;100742.69;6149845;28;20919;-71
2024/01/22 00:44:31;;;;;;;11.43;5.33;;;;;;;5.66;100.00;100717.53;6148179;28;20313;-71
2024/01/22 00:47:52;;;;;;;8.93;5.93;;;;;;;5.67;100.00;100698.72;6140140;28;20234;-71
2024/01/22 00:51:14;;;;;;;6.37;5.63;;;;;;;5.67;100.00;100671.13;6139178;28;20231;-71
2024/01/22 00:54:35;;;;;;;6.60;5.30;;;;;;;5.66;100.00;100656.03;6150253;28;20253;-72
2024/01/22 00:57:56;;;;;;;6.33;4.83;;;;;;;5.65;100.00;100671.22;6132655;28;20561;-71
2024/01/22 01:01:17;;;;;;;6.43;5.13;;;;;;;5.66;100.00;100653.38;6151294;28;20536;-71
2024/01/22 01:04:38;;;;;;;6.37;4.77;;;;;;;5.67;100.00;100633.72;6154433;28;20238;-71
2024/01/22 01:08:00;;;;;;;8.83;5.40;;;;;;;5.67;100.00;100634.53;6148688;28;20238;-70
2024/01/22 01:11:21;;;;;;;9.37;6.33;;;;;;;5.70;100.00;100660.19;6147967;28;20240;-71
2024/01/22 01:14:42;;;;;;;6.83;5.53;;;;;;;5.72;100.00;100642.22;6154170;28;20602;-71
2024/01/22 01:18:04;;;;;;;10.47;5.80;;;;;;;5.83;100.00;100655.69;6139306;28;20797;-70
2024/01/22 01:21:24;;;;;;;9.20;6.47;;;;;;;5.85;100.00;100642.22;6156116;28;20230;-71
2024/01/22 01:24:46;;;;;;;9.07;4.47;;;;;;;5.89;100.00;100636.53;6153144;28;20242;-70
2024/01/22 01:28:07;;;;;;;7.30;4.87;;;;;;;5.88;100.00;100567.97;6156941;28;20624;-69
2024/01/22 01:31:29;;;;;;;5.10;4.43;;;;;;;5.92;100.00;100564.09;6142302;28;20238;-70
2024/01/22 01:34:50;;;;;;;4.97;3.97;;;;;;;5.99;100.00;100575.19;6144304;28;20234;-68
2024/01/22 01:38:11;;;;;;;5.83;5.23;;;;;;;6.06;100.00;100569.28;6147529;28;20490;-70
2024/01/22 01:41:33;;;;;;;7.37;4.53;;;;;;;6.10;100.00;100626.94;6143801;28;20234;-69
2024/01/22 01:44:55;;;;;;;4.73;4.33;;;;;;;6.11;100.00;100604.53;6152721;28;20362;-69
2024/01/22 01:48:16;;;;;;;7.90;4.47;;;;;;;6.12;100.00;100595.56;6157112;28;20230;-70
2024/01/22 01:51:40;;;;;;;8.57;5.10;;;;;;;6.16;100.00;100578.31;6149065;28;20269;-70
2024/01/22 01:55:02;;;;;;;5.53;4.13;;;;;;;6.19;100.00;100554.00;6153971;28;20226;-71
2024/01/22 01:58:24;;;;;;;7.83;5.57;;;;;;;6.25;100.00;100518.75;6158437;28;20249;-69
2024/01/22 02:01:45;;;;;;;8.13;5.43;;;;;;;6.25;100.00;100534.81;6139223;28;20258;-70
2024/01/22 02:05:07;;;;;;;4.40;3.57;;;;;;;6.20;100.00;100504.84;6153633;28;20313;-68
2024/01/22 02:08:28;;;;;;;7.93;4.60;;;;;;;6.15;100.00;100482.94;6154518;28;20245;-69
2024/01/22 02:11:49;;;;;;;4.57;3.50;;;;;;;6.19;100.00;100508.50;6152066;28;20576;-69
2024/01/22 02:15:12;;;;;;;6.47;3.93;;;;;;;6.23;100.00;100525.19;6150563;28;20316;-70
2024/01/22 02:18:33;;;;;;;6.77;5.40;;;;;;;6.25;100.00;100509.84;6165363;28;20515;-70
2024/01/22 02:21:54;;;;;;;6.33;4.50;;;;;;;6.27;100.00;100527.50;6153974;28;20246;-70
2024/01/22 02:25:16;;;;;;;5.57;4.37;;;;;;;6.28;100.00;100475.66;6156986;28;20230;-70
2024/01/22 02:28:37;;;;;;;2.73;2.50;;;;;;;6.39;100.00;100498.94;6157078;28;20230;-69
2024/01/22 02:31:59;;;;;;;4.07;3.17;;;;;;;6.37;100.00;100485.66;6143789;28;20230;-70
2024/01/22 02:35:20;;;;;;;4.33;3.60;;;;;;;6.37;100.00;100436.63;6141189;28;20234;-70
2024/01/22 02:38:41;;;;;;;6.07;4.30;;;;;;;6.39;100.00;100461.44;6160194;28;20591;-70
2024/01/22 02:42:04;;;;;;;6.03;3.87;;;;;;;6.46;100.00;100451.97;6155335;28;20243;-70
2024/01/22 02:45:24;;;;;;;3.77;3.17;;;;;;;6.49;100.00;100486.53;6146091;28;20693;-70
2024/01/22 02:48:45;;;;;;;6.40;4.40;;;;;;;6.55;100.00;100461.94;6153138;28;20313;-70
2024/01/22 02:52:06;;;;;;;6.83;4.20;;;;;;;6.55;100.00;100466.47;6135583;28;20318;-68
2024/01/22 02:55:27;;;;;;;3.47;3.17;;;;;;;6.61;100.00;100465.97;6151601;28;20234;-70
2024/01/22 02:58:49;;;;;;;4.23;3.83;;;;;;;6.63;100.00;100453.31;6154640;28;20624;-69
2024/01/22 03:02:10;;;;;;;4.73;3.83;;;;;;;6.66;100.00;100450.38;6145535;28;20275;-70
2024/01/22 03:05:31;;;;;;;5.03;3.83;;;;;;;6.67;100.00;100438.72;6149471;28;20294;-69
2024/01/22 03:08:52;;;;;;;3.33;3.03;;;;;;;6.69;100.00;100442.13;6150881;28;20243;-69
2024/01/22 03:12:13;;;;;;;9.33;3.10;;;;;;;6.76;100.00;100416.56;6148375;28;20278;-70
2024/01/22 03:15:35;;;;;;;4.33;3.83;;;;;;;6.77;100.00;100389.63;6147101;28;20285;-70
2024/01/22 03:18:56;;;;;;;3.33;3.03;;;;;;;6.78;100.00;100398.53;6163063;28;20230;-69
2024/01/22 03:22:17;;;;;;;3.53;2.50;;;;;;;6.77;100.00;100384.28;6147910;28;20401;-69
2024/01/22 03:25:38;;;;;;;5.73;3.03;;;;;;;6.82;100.00;100378.56;6143556;28;20234;-69
2024/01/22 03:28:59;;;;;;;6.50;3.60;;;;;;;6.77;100.00;100397.69;6151129;28;20238;-70
2024/01/22 03:32:21;;;;;;;4.73;3.13;;;;;;;6.84;100.00;100377.44;6126444;28;20238;-70
2024/01/22 03:35:42;;;;;;;3.57;2.83;;;;;;;6.86;100.00;100390.72;6148712;28;20223;-69
2024/01/22 03:39:03;;;;;;;7.73;3.77;;;;;;;6.83;100.00;100378.44;6160247;28;20230;-70
2024/01/22 03:42:24;;;;;;;2.80;2.30;;;;;;;6.93;100.00;100371.34;6143118;28;20249;-69
2024/01/22 03:45:45;;;;;;;3.60;2.70;;;;;;;6.92;100.00;100366.97;6140844;28;20692;-69
2024/01/22 03:49:07;;;;;;;5.77;3.60;;;;;;;6.95;100.00;100336.38;6151957;28;20242;-70
2024/01/22 03:52:28;;;;;;;5.50;3.23;;;;;;;7.02;100.00;100321.50;6147862;28;20234;-70
2024/01/22 03:55:49;;;;;;;3.33;2.97;;;;;;;6.98;100.00;100306.66;6146145;28;20235;-71
2024/01/22 03:59:11;;;;;;;3.60;2.70;;;;;;;7.01;100.00;100312.59;6154383;28;20234;-70
2024/01/22 04:02:33;;;;;;;5.07;3.10;;;;;;;7.07;100.00;100293.31;6141088;28;21122;-69
2024/01/22 04:05:56;;;;;;;4.43;2.57;;;;;;;7.13;100.00;100274.03;6147647;28;20250;-69
2024/01/22 04:09:17;;;;;;;5.17;2.67;;;;;;;7.05;100.00;100284.56;6150977;28;20234;-69
2024/01/22 04:12:39;;;;;;;4.80;2.87;;;;;;;6.92;100.00;100270.50;6142113;28;20230;-71
2024/01/22 04:16:00;;;;;;;2.87;2.23;;;;;;;7.05;100.00;100276.53;6134921;28;20516;-70
2024/01/22 04:19:21;;;;;;;2.57;1.90;;;;;;;7.03;100.00;100265.09;6150257;28;20667;-70
2024/01/22 04:22:44;;;;;;;7.40;2.97;;;;;;;7.01;100.00;100242.06;6146039;28;20608;-71
2024/01/22 04:26:06;;;;;;;3.50;2.67;;;;;;;6.97;100.00;100233.44;6143924;28;20604;-70
2024/01/22 04:29:26;;;;;;;5.63;3.50;;;;;;;6.95;100.00;100168.44;6150988;28;20227;-70
2024/01/22 04:32:47;;;;;;;2.23;2.03;;;;;;;6.93;100.00;100225.78;6140686;28;20250;-70
2024/01/22 04:36:08;;;;;;;5.50;2.30;;;;;;;6.99;100.00;100191.31;6142516;28;20227;-71
2024/01/22 04:39:31;;;;;;;2.83;2.43;;;;;;;6.99;100.00;100171.69;6146380;28;20222;-70
2024/01/22 04:42:51;;;;;;;3.27;2.57;;;;;;;7.04;100.00;100169.47;6149207;28;20235;-70
2024/01/22 04:46:12;;;;;;;2.53;1.90;;;;;;;7.05;100.00;100152.44;6142387;28;20250;-70
2024/01/22 04:49:33;;;;;;;2.40;2.20;;;;;;;7.07;100.00;100135.22;6149540;28;20238;-70
2024/01/22 04:52:54;;;;;;;3.00;2.10;;;;;;;7.14;100.00;100135.53;6142062;28;20235;-70
2024/01/22 04:56:16;;;;;;;4.63;2.77;;;;;;;7.02;100.00;100134.78;6143247;28;20266;-70
2024/01/22 04:59:37;;;;;;;3.17;2.20;;;;;;;6.96;100.00;100142.50;6151525;28;20222;-70
2024/01/22 05:02:59;;;;;;;4.43;2.67;;;;;;;6.99;100.00;100143.06;6141744;28;20227;-70
2024/01/22 05:06:20;;;;;;;2.70;2.50;;;;;;;6.96;100.00;100162.09;6143392;28;20226;-70
2024/01/22 05:09:40;;;;;;;6.90;2.80;;;;;;;6.97;100.00;100141.50;6155823;28;20634;-70
2024/01/22 05:13:03;;;;;;;2.30;2.00;;;;;;;6.97;100.00;100128.09;6151025;28;20234;-69
2024/01/22 05:16:24;;;;;;;3.87;2.67;;;;;;;7.07;100.00;100102.22;6143516;28;20824;-70
2024/01/22 05:19:45;;;;;;;3.80;2.50;;;;;;;7.10;100.00;100118.03;6160181;28;20231;-70
2024/01/22 05:23:08;;;;;;;3.17;2.50;;;;;;;7.16;100.00;100133.56;6146261;28;20242;-70
2024/01/22 05:26:28;;;;;;;4.03;3.00;;;;;;;7.17;100.00;100117.38;6141464;28;20226;-69
2024/01/22 05:29:51;;;;;;;3.50;2.93;;;;;;;7.21;100.00;100091.16;6148340;28;20238;-69
2024/01/22 05:33:12;;;;;;;4.17;1.70;;;;;;;7.29;100.00;100096.69;6145745;28;20230;-70
2024/01/22 05:36:34;;;;;;;2.77;2.27;;;;;;;7.34;100.00;100059.63;6140338;28;20535;-70
2024/01/22 05:39:55;;;;;;;2.37;2.27;;;;;;;7.40;100.00;100088.56;6151738;28;21447;-70
2024/01/22 05:43:16;;;;;;;5.43;2.80;;;;;;;7.51;100.00;100075.03;6152198;28;20231;-69
2024/01/22 05:46:39;;;;;;;3.97;2.03;;;;;;;7.51;100.00;100052.75;6138834;28;20569;-70
2024/01/22 05:50:00;;;;;;;2.60;2.40;;;;;;;7.48;100.00;100048.50;6146760;28;20223;-70
2024/01/22 05:53:21;;;;;;;2.67;1.77;;;;;;;7.65;100.00;100053.22;6149277;28;20235;-69
2024/01/22 05:56:42;;;;;;;2.30;1.93;;;;;;;7.67;100.00;100040.50;6138536;28;20250;-70
2024/01/22 06:00:09;;;;;;;4.63;1.93;;;;;;;7.82;100.00;100060.56;6150055;28;20640;-70
2024/01/22 06:03:36;;;;;;;2.00;1.90;;;;;;;7.84;100.00;100037.13;6143466;28;20317;-70
2024/01/22 06:06:56;;;;;;;1.63;1.53;;;;;;;7.90;100.00;100055.38;6151266;28;20235;-69
2024/01/22 06:10:17;;;;;;;1.43;1.33;;;;;;;7.90;100.00;100055.38;6149068;28;20238;-69
2024/01/22 06:13:39;;;;;;;3.07;2.03;;;;;;;7.97;100.00;100035.03;6155880;28;20545;-69
2024/01/22 06:17:00;;;;;;;2.60;1.63;;;;;;;8.00;100.00;100042.81;6147477;28;20234;-68
2024/01/22 06:20:22;;;;;;;2.87;1.57;;;;;;;8.04;100.00;100012.00;6145349;28;20246;-69
2024/01/22 06:23:46;;;;;;;2.10;1.70;;;;;;;8.24;100.00;100042.38;6162239;28;20222;-68
2024/01/22 06:27:07;;;;;;;2.17;1.60;;;;;;;8.29;100.00;100025.88;6157873;28;20238;-69
2024/01/22 06:30:28;;;;;;;3.07;1.33;;;;;;;8.46;100.00;100014.41;6138480;28;22437;-69
2024/01/22 06:33:50;;;;;;;2.60;1.87;;;;;;;8.32;100.00;100015.72;6155526;28;20231;-71
2024/01/22 06:37:12;;;;;;;1.47;1.37;;;;;;;8.50;100.00;99999.69;6151390;28;20230;-69
2024/01/22 06:40:34;;;;;;;8.07;1.63;;;;;;;8.69;100.00;100007.72;6140035;28;20230;-67
2024/01/22 06:43:55;;;;;;;1.27;1.17;;;;;;;8.64;100.00;99997.41;6155565;28;20611;-68
2024/01/22 06:47:16;;;;;;;2.17;1.07;;;;;;;8.74;100.00;99998.22;6141671;28;20509;-69
2024/01/22 06:50:37;;;;;;;0.80;0.70;;;;;;;9.13;100.00;100020.44;6132288;28;20329;-67
2024/01/22 06:53:59;;;;;;;1.47;1.37;;;;;;;9.17;100.00;99984.19;6153155;28;20226;-68
2024/01/22 06:57:20;;;;;;;1.10;1.10;;;;;;;9.22;100.00;99973.00;6130770;28;20234;-70
2024/01/22 07:00:41;;;;;;;1.10;1.10;;;;;;;9.40;100.00;100000.78;6138146;28;20238;-68
2024/01/22 07:04:01;;;;;;;1.40;1.00;;;;;;;9.44;100.00;99986.03;6149880;28;20234;-69
2024/01/22 07:07:25;;;;;;;0.70;0.70;;;;;;;9.73;100.00;100063.88;6157920;28;20226;-69
2024/01/22 07:10:48;;;;;;;0.90;0.80;;;;;;;9.83;100.00;99994.66;6160157;28;20729;-70
2024/01/22 07:14:09;;;;;;;1.57;0.90;;;;;;;9.72;100.00;99978.75;6167130;28;20644;-69
2024/01/22 07:17:30;;;;;;;0.97;0.97;;;;;;;9.79;100.00;99982.50;6136166;28;20600;-70
2024/01/22 07:20:52;;;;;;;1.07;0.90;;;;;;;9.93;100.00;100027.78;6155792;28;20959;-71
2024/01/22 07:24:13;;;;;;;0.90;0.90;;;;;;;9.91;100.00;99976.75;6158941;28;20620;-69
2024/01/22 07:27:38;;;;;;;1.70;1.10;;;;;;;9.97;100.00;99965.34;6152763;28;20230;-69
2024/01/22 07:30:59;;;;;;;1.17;1.07;;;;;;;9.93;100.00;99980.13;6148933;28;20235;-68
2024/01/22 07:34:20;;;;;;;0.67;0.67;;;;;;;10.01;100.00;99995.53;6151357;28;20234;-69
2024/01/22 07:37:44;;;;;;;1.10;1.00;;;;;;;10.17;100.00;99972.31;6142643;28;20491;-69
2024/01/22 07:41:06;;;;;;;1.20;1.07;;;;;;;10.14;100.00;100009.47;6148250;28;20231;-69
2024/01/22 07:44:28;;;;;;;0.83;0.80;;;;;;;10.01;100.00;99966.75;6151535;28;20230;-70
2024/01/22 07:47:49;;;;;;;1.37;1.00;;;;;;;10.15;100.00;100012.03;6140482;28;20797;-69
2024/01/22 07:51:10;;;;;;;0.60;0.60;;;;;;;10.08;100.00;100000.13;6142388;28;20234;-71
2024/01/22 07:54:31;;;;;;;0.80;0.80;;;;;;;10.00;100.00;99993.81;6150267;28;20239;-68
2024/01/22 07:57:52;;;;;;;0.70;0.70;;;;;;;9.83;100.00;99981.19;6142241;28;20231;-69
2024/01/22 08:01:14;;;;;;;0.70;0.70;;;;;;;9.81;100.00;99980.50;6146175;28;20335;-67
2024/01/22 08:04:36;;;;;;;1.60;1.50;;;;;;;9.88;100.00;99971.69;6157858;28;20234;-70
2024/01/22 08:07:58;;;;;;;0.80;0.77;;;;;;;9.81;100.00;99970.59;6131812;28;20535;-68
2024/01/22 08:11:18;;;;;;;0.90;0.90;;;;;;;9.97;100.00;99986.06;6157511;28;20526;-71
2024/01/22 08:14:39;;;;;;;0.97;0.90;;;;;;;9.96;100.00;100011.28;6167084;28;20257;-69
2024/01/22 08:18:01;;;;;;;1.13;1.03;;;;;;;9.78;100.00;99972.75;6151534;28;20890;-69
2024/01/22 08:21:22;;;;;;;2.13;1.27;;;;;;;9.75;100.00;99997.28;6149320;28;20238;-69
2024/01/22 08:24:43;;;;;;;0.87;0.87;;;;;;;9.67;100.00;100014.19;6156687;28;20246;-72
2024/01/22 08:28:05;;;;;;;0.93;0.83;;;;;;;9.57;100.00;99973.88;6161545;28;20616;-69
2024/01/22 08:31:26;;;;;;;8.50;1.50;;;;;;;9.51;100.00;99979.88;6151248;28;20231;-71
2024/01/22 08:34:48;;;;;;;2.60;1.57;;;;;;;9.61;100.00;99977.13;6166808;28;20254;-70
2024/01/22 08:38:09;;;;;;;1.47;1.37;;;;;;;9.62;100.00;99960.81;6154662;28;20524;-72
2024/01/22 08:41:30;;;;;;;0.80;0.80;;;;;;;9.70;100.00;99962.75;6147465;28;20226;-69
2024/01/22 08:44:51;;;;;;;1.73;1.33;;;;;;;9.90;100.00;99990.38;6163090;28;20230;-69
2024/01/22 08:48:12;;;;;;;1.20;1.10;;;;;;;9.98;100.00;99974.28;6155518;28;20234;-68
2024/01/22 08:51:34;;;;;;;1.20;1.10;;;;;;;9.97;100.00;99975.31;6152927;28;20321;-69
2024/01/22 08:54:55;;;;;;;1.60;1.50;;;;;;;10.13;100.00;100008.66;6162917;28;20334;-69
2024/01/22 08:58:16;;;;;;;1.23;1.13;;;;;;;10.17;100.00;99984.94;6146981;28;20238;-68
2024/01/22 09:01:37;;;;;;;1.70;1.60;;;;;;;10.22;100.00;99988.84;6138706;28;20231;-69
2024/01/22 09:04:58;;;;;;;1.27;1.20;;;;;;;10.12;100.00;99985.41;6154901;28;20802;-70
2024/01/22 09:08:21;;;;;;;1.13;1.10;;;;;;;10.08;100.00;100000.13;6160199;28;20234;-69
2024/01/22 09:11:41;;;;;;;1.50;1.40;;;;;;;10.19;100.00;100013.41;6149263;28;20226;-69
2024/01/22 09:15:05;;;;;;;1.97;1.87;;;;;;;10.20;100.00;99987.31;6156831;28;20230;-69
2024/01/22 09:18:26;;;;;;;1.80;1.70;;;;;;;10.14;100.00;99993.31;6144101;28;20695;-70
2024/01/22 09:21:47;;;;;;;1.90;1.63;;;;;;;10.12;100.00;100000.69;6147250;28;20231;-67
2024/01/22 09:25:10;;;;;;;1.33;1.23;;;;;;;10.21;100.00;100005.16;6159552;28;20241;-67
2024/01/22 09:28:31;;;;;;;2.37;1.80;;;;;;;10.28;100.00;100011.63;6154254;28;20639;-68
2024/01/22 09:31:53;;;;;;;1.83;1.70;;;;;;;10.33;100.00;99993.13;6148964;28;20246;-68
2024/01/22 09:35:14;;;;;;;2.33;2.23;;;;;;;10.33;100.00;99976.97;6151305;28;20227;-69
2024/01/22 09:38:35;;;;;;;1.67;1.57;;;;;;;10.44;100.00;99979.44;6164120;28;20235;-68
2024/01/22 09:41:58;;;;;;;1.63;1.53;;;;;;;10.52;100.00;99960.63;6154013;28;20226;-68
2024/01/22 09:45:19;;;;;;;2.53;1.00;;;;;;;10.61;100.00;99948.91;6147404;28;20230;-71
2024/01/22 09:48:39;;;;;;;1.87;1.77;;;;;;;10.68;100.00;99967.97;6155159;28;20238;-72
2024/01/22 09:52:02;;;;;;;2.57;1.80;;;;;;;10.63;100.00;99981.91;6148879;28;20238;-68
2024/01/22 09:55:23;;;;;;;1.60;1.40;;;;;;;10.51;100.00;99980.50;6145954;28;20900;-70
2024/01/22 09:58:47;;;;;;;1.50;1.40;;;;;;;10.46;100.00;100015.13;6152180;28;20246;-69
2024/01/22 10:02:11;;;;;;;2.67;1.30;;;;;;;10.44;100.00;100006.38;6135371;28;20230;-69
2024/01/22 10:05:33;;;;;;;2.33;1.77;;;;;;;10.30;100.00;100001.53;6143948;28;20257;-70
2024/01/22 10:08:57;;;;;;;3.13;1.70;;;;;;;10.21;100.00;100008.72;6160104;28;20679;-70
2024/01/22 10:12:18;;;;;;;2.17;1.87;;;;;;;10.14;100.00;100028.31;6128929;28;20238;-69
2024/01/22 10:15:41;;;;;;;1.77;1.67;;;;;;;12.51;100.00;100014.59;6155104;28;20250;-70
2024/01/22 10:19:05;;;;;;;2.97;1.93;;;;;;;9.80;100.00;100027.28;6161863;28;20227;-69
2024/01/22 10:22:26;;;;;;;1.63;1.53;;;;;;;9.85;100.00;99998.03;6161044;28;20234;-72
2024/01/22 10:25:47;;;;;;;2.27;1.93;;;;;;;9.79;100.00;100009.44;6158596;28;20230;-72
2024/01/22 10:29:17;;;;;;;2.00;1.90;;;;;;;9.78;100.00;100030.13;6164214;28;20508;-69
2024/01/22 10:32:39;;;;;;;2.10;2.00;;;;;;;9.80;100.00;100032.66;6157722;28;20317;-71
2024/01/22 10:36:15;;;;;;;1.60;1.50;;;;;;;9.83;100.00;100029.66;6157715;28;20623;-71
2024/01/22 10:39:39;;;;;;;2.20;2.10;;;;;;;9.78;100.00;100136.94;6167360;28;20504;-70
2024/01/22 10:43:00;;;;;;;4.20;2.10;;;;;;;8.89;100.00;100132.16;6155454;28;20226;-72
2024/01/22 10:46:22;;;;;;;3.63;2.50;;;;;;;8.58;100.00;100091.16;6139160;28;20667;-70
2024/01/22 10:49:45;;;;;;;6.10;2.70;;;;;;;8.57;100.00;100102.91;6152572;28;20247;-70
2024/01/22 10:53:08;;;;;;;3.67;2.20;;;;;;;8.64;100.00;100104.84;6158020;28;20235;-69
2024/01/22 10:56:34;;;;;;;4.33;2.10;;;;;;;8.67;100.00;100109.97;6160900;28;20230;-71
2024/01/22 10:59:59;;;;;;;5.43;2.63;;;;;;;8.70;100.00;100096.22;6161379;28;20664;-69
2024/01/22 11:03:26;;;;;;;2.97;2.30;;;;;;;8.74;100.00;100113.75;6166271;28;20270;-69
2024/01/22 11:06:54;;;;;;;7.90;3.30;;;;;;;8.77;100.00;100115.31;6152114;28;20239;-70
2024/01/22 11:10:16;;;;;;;3.63;2.40;;;;;;;8.87;100.00;100102.69;6148690;28;20227;-70
2024/01/22 11:13:37;;;;;;;4.93;2.47;;;;;;;8.94;100.00;100086.84;6167316;28;20257;-70
2024/01/22 11:16:58;;;;;;;4.20;1.97;;;;;;;9.01;100.00;100099.56;6147798;28;20257;-70
2024/01/22 11:20:21;;;;;;;8.50;2.90;;;;;;;8.97;100.00;100098.16;6150403;28;20242;-70
2024/01/22 11:23:43;;;;;;;4.30;3.03;;;;;;;9.00;100.00;100129.28;6159998;28;20222;-70
2024/01/22 11:27:07;;;;;;;8.47;3.97;;;;;;;9.00;100.00;100105.94;6156863;28;20237;-69
2024/01/22 11:30:32;;;;;;;6.67;2.87;;;;;;;9.11;100.00;100097.72;6160624;28;20234;-70
2024/01/22 11:33:52;;;;;;;9.03;3.00;;;;;;;9.12;100.00;100098.53;6161132;28;20552;-70
2024/01/22 11:37:13;;;;;;;7.83;2.87;;;;;;;9.19;100.00;100127.41;6149727;28;20238;-70
2024/01/22 11:40:50;;;;;;;10.33;3.43;;;;;;;9.22;100.00;100124.41;6133487;28;20675;-69
2024/01/22 11:44:11;;;;;;;7.57;2.50;;;;;;;9.27;100.00;100119.44;6152450;28;20672;-69
2024/01/22 11:47:32;;;;;;;6.77;3.10;;;;;;;9.29;100.00;100117.47;6145213;28;20604;-67
2024/01/22 11:50:58;;;;;;;13.93;4.10;;;;;;;9.40;100.00;100119.97;6152189;28;20234;-68
2024/01/22 11:54:19;;;;;;;6.50;3.40;;;;;;;9.44;100.00;100118.69;6160741;28;22810;-67
2024/01/22 11:57:41;;;;;;;12.07;3.10;;;;;;;9.41;100.00;100108.22;6153592;28;20230;-66
2024/01/22 12:01:07;;;;;;;10.80;3.63;;;;;;;9.54;100.00;100105.19;6149441;28;20813;-69
2024/01/22 12:04:29;;;;;;;6.60;3.07;;;;;;;10.15;100.00;100108.97;6121480;28;20238;-69
2024/01/22 12:07:52;;;;;;;9.03;4.40;;;;;;;10.09;100.00;100124.88;6149134;28;20239;-70
2024/01/22 12:11:14;;;;;;;7.07;3.70;;;;;;;10.05;100.00;100118.09;6145029;28;20222;-69
2024/01/22 12:14:36;;;;;;;14.10;4.63;;;;;;;9.88;100.00;100122.44;6164846;28;20226;-68
2024/01/22 12:17:57;;;;;;;9.17;3.10;;;;;;;9.78;100.00;100118.97;6150947;28;20230;-69
2024/01/22 12:21:20;;;;;;;8.87;3.97;;;;;;;9.79;100.00;100120.63;6146272;28;20238;-69
2024/01/22 12:24:41;;;;;;;14.63;5.57;;;;;;;9.77;100.00;100119.94;6155426;28;20254;-68
2024/01/22 12:28:08;;;;;;;9.60;3.53;;;;;;;9.71;100.00;100130.44;6147081;28;20234;-69
2024/01/22 12:31:30;;;;;;;7.57;3.47;;;;;;;9.65;100.00;100135.44;6150653;28;20531;-68
2024/01/22 12:34:55;;;;;;;14.73;4.33;;;;;;;9.76;100.00;100130.88;6164320;28;20238;-68
2024/01/22 12:38:17;;;;;;;7.63;4.10;;;;;;;9.86;100.00;100131.66;6160256;28;20238;-68
2024/01/22 12:41:38;;;;;;;7.60;4.27;;;;;;;9.76;100.00;100138.94;6154820;28;20230;-70
2024/01/22 12:44:59;;;;;;;8.87;4.50;;;;;;;9.72;100.00;100141.06;6161796;28;20229;-69
2024/01/22 12:48:21;;;;;;;9.13;3.73;;;;;;;9.71;100.00;100150.16;6153364;28;20235;-69
2024/01/22 12:51:42;;;;;;;11.53;4.13;;;;;;;9.67;100.00;100148.75;6154716;28;20751;-70
2024/01/22 12:55:03;;;;;;;11.70;4.80;;;;;;;9.64;100.00;100141.81;6163610;28;22527;-68
2024/01/22 12:58:25;;;;;;;13.37;5.57;;;;;;;9.66;100.00;100147.91;6164435;28;20556;-69
2024/01/22 13:01:45;;;;;;;19.03;6.50;;;;;;;9.73;100.00;100129.31;6146239;28;23070;-69
2024/01/22 13:05:08;;;;;;;10.67;4.73;;;;;;;9.78;100.00;100140.50;6162158;28;22031;-68
2024/01/22 13:08:29;;;;;;;11.33;4.30;;;;;;;9.78;100.00;100134.25;6155573;28;20234;-69
2024/01/22 13:11:51;;;;;;;7.93;3.70;;;;;;;9.75;100.00;100137.22;6134722;28;20223;-67
2024/01/22 13:15:13;;;;;;;11.60;3.93;;;;;;;9.72;100.00;100141.06;6146768;28;20231;-70
2024/01/22 13:18:33;;;;;;;11.07;6.17;;;;;;;9.70;100.00;100153.00;6148234;28;20238;-69
2024/01/22 13:21:56;;;;;;;10.73;4.33;;;;;;;9.82;100.00;100149.97;6155129;28;20231;-67
2024/01/22 13:25:19;;;;;;;12.13;5.23;;;;;;;9.81;100.00;100150.09;6143870;28;20246;-71
2024/01/22 13:28:40;;;;;;;19.23;6.27;;;;;;;9.72;100.00;100149.13;6156814;28;20231;-69
2024/01/22 13:32:01;;;;;;;14.77;5.90;;;;;;;9.62;100.00;100154.56;6139456;28;20226;-71
2024/01/22 13:35:22;;;;;;;10.37;4.20;;;;;;;9.62;100.00;100165.34;6151341;28;20361;-72
2024/01/22 13:38:44;;;;;;;13.23;5.10;;;;;;;9.59;100.00;100157.56;6146129;28;20234;-72
2024/01/22 13:42:06;;;;;;;15.07;5.50;;;;;;;9.60;100.00;100167.31;6152737;28;20233;-71
2024/01/22 13:45:27;;;;;;;13.07;5.00;;;;;;;9.66;100.00;100185.56;6148202;28;20230;-73
2024/01/22 13:48:49;;;;;;;11.60;6.57;;;;;;;9.68;100.00;100180.03;6152937;28;20234;-70
2024/01/22 13:52:09;;;;;;;18.13;5.37;;;;;;;9.70;100.00;100193.38;6144926;28;20312;-70
2024/01/22 13:55:32;;;;;;;9.53;5.17;;;;;;;9.62;100.00;100169.84;6148112;28;23190;-69
2024/01/22 13:58:52;;;;;;;13.67;5.17;;;;;;;9.60;100.00;100191.53;6153384;28;20332;-69
2024/01/22 14:02:13;;;;;;;12.13;4.67;;;;;;;9.63;100.00;100180.50;6145061;28;20227;-72
2024/01/22 14:05:34;;;;;;;12.83;6.03;;;;;;;9.63;100.00;100199.34;6145869;28;20230;-70
2024/01/22 14:08:56;;;;;;;13.27;5.20;;;;;;;9.64;100.00;100200.16;6142346;28;20246;-70
2024/01/22 14:12:18;;;;;;;14.53;5.40;;;;;;;9.65;100.00;100200.03;6157956;28;20233;-71
2024/01/22 14:15:39;;;;;;;12.07;4.30;;;;;;;9.72;100.00;100207.53;6148251;28;20788;-69
2024/01/22 14:19:00;;;;;;;10.17;4.27;;;;;;;9.68;100.00;100211.50;6131404;28;21338;-69
2024/01/22 14:22:24;;;;;;;25.13;6.23;;;;;;;9.70;100.00;100220.28;6144169;28;20225;-69
2024/01/22 14:25:45;;;;;;;10.47;4.73;;;;;;;9.62;100.00;100204.84;6157806;28;20234;-69
2024/01/22 14:29:08;;;;;;;9.17;4.77;;;;;;;9.62;100.00;100213.78;6136871;28;20905;-68
2024/01/22 14:32:30;;;;;;;7.93;3.93;;;;;;;9.61;100.00;100209.41;6145910;28;20258;-69
2024/01/22 14:35:53;;;;;;;9.97;4.30;;;;;;;9.61;100.00;100220.16;6152106;28;20243;-69
2024/01/22 14:39:14;;;;;;;12.17;4.97;;;;;;;9.58;100.00;100241.13;6154437;28;20238;-68
2024/01/22 14:42:35;;;;;;;6.63;4.13;;;;;;;9.50;100.00;100241.84;6151485;28;20426;-70
2024/01/22 14:45:57;;;;;;;13.20;6.20;;;;;;;9.56;100.00;100252.03;6139747;28;20238;-67
2024/01/22 14:49:18;;;;;;;8.87;4.00;;;;;;;9.55;100.00;100265.63;6154056;28;20636;-69
2024/01/22 14:52:39;;;;;;;9.33;4.27;;;;;;;9.46;100.00;100259.28;6138170;28;20333;-68
2024/01/22 14:56:00;;;;;;;7.23;3.63;;;;;;;9.35;100.00;100259.44;6142387;28;20239;-67
2024/01/22 14:59:21;;;;;;;11.60;3.43;;;;;;;9.29;100.00;100254.63;6166400;28;20859;-68
2024/01/22 15:02:44;;;;;;;10.27;4.07;;;;;;;9.28;100.00;100269.06;6148381;28;20234;-67
2024/01/22 15:06:05;;;;;;;12.80;4.40;;;;;;;9.26;100.00;100292.53;6160174;28;20321;-67
2024/01/22 15:09:25;;;;;;;7.10;4.00;;;;;;;9.21;100.00;100284.06;6141231;28;20238;-68
2024/01/22 15:12:47;;;;;;;10.43;4.73;;;;;;;9.16;100.00;100288.16;6149352;28;20242;-67
2024/01/22 15:16:09;;;;;;;14.57;4.87;;;;;;;9.11;100.00;100288.59;6148757;28;20317;-68
2024/01/22 15:19:31;;;;;;;11.93;5.53;;;;;;;9.12;100.00;100297.50;6155848;28;20242;-68
2024/01/22 15:22:53;;;;;;;7.27;3.87;;;;;;;9.15;100.00;100316.06;6148579;28;20238;-69
2024/01/22 15:26:14;;;;;;;9.83;3.97;;;;;;;9.11;100.00;100301.19;6147092;28;20219;-69
2024/01/22 15:29:35;;;;;;;10.57;3.53;;;;;;;9.12;100.00;100310.94;6154740;28;20222;-68
2024/01/22 15:32:56;;;;;;;14.27;4.07;;;;;;;9.08;100.00;100328.34;6143195;28;20230;-67
2024/01/22 15:36:19;;;;;;;7.03;3.93;;;;;;;9.01;100.00;100332.59;6154512;28;20238;-68